createdAt,value
2022-11-02T00:04:44.921Z,0
2022-11-02T00:09:45.029Z,0
2022-11-02T00:14:44.923Z,0
2022-11-02T00:19:44.919Z,0
2022-11-02T00:24:44.805Z,0
2022-11-02T00:29:44.840Z,0
2022-11-02T00:34:44.822Z,0
2022-11-02T00:39:44.723Z,0
2022-11-02T00:44:44.776Z,0
2022-11-02T00:49:44.705Z,0
2022-11-02T00:54:44.743Z,0
2022-11-02T00:59:45.070Z,0
2022-11-02T01:04:44.990Z,0
2022-11-02T01:09:44.692Z,0
2022-11-02T01:14:44.833Z,0
2022-11-02T01:19:44.681Z,0
2022-11-02T01:24:44.799Z,0
2022-11-02T01:29:44.631Z,0
2022-11-02T01:34:44.943Z,0
2022-11-02T01:39:44.713Z,0
2022-11-02T01:44:44.746Z,0
2022-11-02T01:49:46.466Z,0
2022-11-02T01:54:44.837Z,0
2022-11-02T01:59:44.565Z,0
2022-11-02T02:04:44.703Z,0
2022-11-02T02:09:48.669Z,0
2022-11-02T02:14:45.196Z,0
2022-11-02T02:19:44.579Z,0
2022-11-02T02:24:48.531Z,0
2022-11-02T02:29:44.516Z,0
2022-11-02T02:34:44.814Z,0
2022-11-02T02:39:44.840Z,0
2022-11-02T02:44:44.827Z,0
2022-11-02T02:49:47.903Z,0
2022-11-02T02:54:44.444Z,0
2022-11-02T02:59:44.856Z,0
2022-11-02T03:04:45.049Z,0
2022-11-02T03:09:44.763Z,0
2022-11-02T03:14:50.633Z,0
2022-11-02T03:19:44.764Z,0
2022-11-02T03:24:44.537Z,0
2022-11-02T03:29:44.465Z,0
2022-11-02T03:34:44.816Z,0
2022-11-02T03:39:44.537Z,0
2022-11-02T03:44:46.865Z,0
2022-11-02T03:49:44.601Z,0
2022-11-02T03:54:44.555Z,0
2022-11-02T03:59:44.686Z,0
2022-11-02T04:04:44.462Z,0
2022-11-02T04:09:44.508Z,0
2022-11-02T04:14:44.451Z,0
2022-11-02T04:19:48.665Z,0
2022-11-02T04:24:44.578Z,0
2022-11-02T04:29:44.510Z,0
2022-11-02T04:34:44.573Z,0
2022-11-02T04:39:44.503Z,0
2022-11-02T04:44:44.820Z,0
2022-11-02T04:49:44.723Z,0
2022-11-02T04:54:44.736Z,0
2022-11-02T04:59:44.409Z,0
2022-11-02T05:04:44.442Z,0
2022-11-02T05:09:44.535Z,0
2022-11-02T05:14:44.527Z,0
2022-11-02T05:19:44.673Z,0
2022-11-02T05:24:44.498Z,0
2022-11-02T05:29:44.333Z,0
2022-11-02T05:34:44.553Z,0
2022-11-02T05:39:47.715Z,0
2022-11-02T05:44:44.850Z,0
2022-11-02T05:49:44.604Z,0
2022-11-02T05:54:44.542Z,0
2022-11-02T05:59:46.792Z,0
2022-11-02T06:04:44.520Z,0
2022-11-02T06:09:44.650Z,0
2022-11-02T06:14:44.486Z,0
2022-11-02T06:19:44.446Z,0
2022-11-02T06:24:44.549Z,0
2022-11-02T06:29:44.275Z,0
2022-11-02T06:34:44.574Z,0.3
2022-11-02T06:39:44.485Z,0.8
2022-11-02T06:56:22.133Z,4.4
2022-11-02T06:56:29.390Z,4.7
2022-11-02T06:56:36.160Z,4.7
2022-11-02T06:59:44.638Z,5.4
2022-11-02T07:04:44.484Z,7.8
2022-11-02T07:09:44.257Z,9.5
2022-11-02T07:14:44.532Z,10.5
2022-11-02T07:19:44.336Z,11.4
2022-11-02T07:24:44.542Z,13.9
2022-11-02T07:29:44.470Z,14
2022-11-02T07:34:44.490Z,15.7
2022-11-02T07:39:44.507Z,16.2
2022-11-02T07:44:44.518Z,18.5
2022-11-02T07:49:44.790Z,22
2022-11-02T07:54:44.783Z,25.2
2022-11-02T07:59:44.251Z,27.5
2022-11-02T08:04:45.229Z,29.5
2022-11-02T08:09:44.476Z,31.6
2022-11-02T08:14:44.259Z,32.9
2022-11-02T08:19:44.503Z,35.5
2022-11-02T08:24:44.308Z,38.6
2022-11-02T08:29:44.534Z,42
2022-11-02T08:34:44.376Z,45.8
2022-11-02T08:39:44.256Z,46.1
2022-11-02T08:44:44.142Z,47.2
2022-11-02T08:49:44.245Z,48.5
2022-11-02T08:54:44.411Z,50.7
2022-11-02T08:59:44.146Z,65
2022-11-02T09:04:44.201Z,90.9
2022-11-02T09:09:44.403Z,88.2
2022-11-02T09:14:44.193Z,68.7
2022-11-02T09:19:44.215Z,68.3
2022-11-02T09:24:44.475Z,64.2
2022-11-02T09:29:44.420Z,56.9
2022-11-02T09:34:44.350Z,56.8
2022-11-02T09:39:44.172Z,59.9
2022-11-02T09:44:44.266Z,55.9
2022-11-02T09:49:44.188Z,60.7
2022-11-02T09:54:44.289Z,59.6
2022-11-02T09:59:44.130Z,65.7
2022-11-02T10:04:44.103Z,68.7
2022-11-02T10:09:44.135Z,79.9
2022-11-02T10:14:49.106Z,75.5
2022-11-02T10:19:44.144Z,85.5
2022-11-02T10:24:44.374Z,105.8
2022-11-02T10:29:47.549Z,117.9
2022-11-02T10:34:45.571Z,88.3
2022-11-02T10:39:44.105Z,74.6
2022-11-02T10:44:44.032Z,64.6
2022-11-02T10:49:44.138Z,63.2
2022-11-02T10:54:44.071Z,74.9
2022-11-02T10:59:44.233Z,78.3
2022-11-02T11:04:44.170Z,87.9
2022-11-02T11:09:46.641Z,126.9
2022-11-02T11:19:44.209Z,187.3
2022-11-02T11:24:44.225Z,231.9
2022-11-02T11:29:44.286Z,250.3
2022-11-02T11:34:44.390Z,334.5
2022-11-02T11:39:45.328Z,316.4
2022-11-02T11:44:44.041Z,419.7
2022-11-02T11:50:09.054Z,544.9
2022-11-02T11:54:44.190Z,621.1
2022-11-02T11:59:45.390Z,683.3
2022-11-02T12:04:44.072Z,695.6
2022-11-02T12:09:44.005Z,728
2022-11-02T12:14:44.156Z,754
2022-11-02T12:19:53.070Z,740.3
2022-11-02T12:24:44.118Z,699.7
2022-11-02T12:29:52.867Z,703.8
2022-11-02T12:34:46.572Z,697.4
2022-11-02T12:39:43.962Z,605.6
2022-11-02T12:44:44.076Z,425.1
2022-11-02T12:49:44.031Z,196.3
2022-11-02T12:54:44.078Z,116.7
2022-11-02T12:59:45.466Z,88
2022-11-02T13:04:43.982Z,69.6
2022-11-02T13:09:48.928Z,62.9
2022-11-02T13:14:46.194Z,59.8
2022-11-02T13:19:44.005Z,55.8
2022-11-02T13:24:44.163Z,63.5
2022-11-02T13:29:44.194Z,60.5
2022-11-02T13:34:44.132Z,61.2
2022-11-02T13:39:44.122Z,61.8
2022-11-02T13:44:43.883Z,104.3
2022-11-02T13:49:44.126Z,103.5
2022-11-02T13:54:45.523Z,96
2022-11-02T13:59:44.071Z,87
2022-11-02T14:04:43.902Z,76.1
2022-11-02T14:09:44.132Z,78.5
2022-11-02T14:14:44.228Z,80.7
2022-11-02T14:19:43.862Z,76.5
2022-11-02T14:24:43.877Z,63.8
2022-11-02T14:29:43.881Z,61.7
2022-11-02T14:34:48.009Z,70.9
2022-11-02T14:39:44.094Z,65.8
2022-11-02T14:44:43.841Z,57.7
2022-11-02T14:49:47.903Z,46.4
2022-11-02T14:54:43.778Z,47.1
2022-11-02T14:59:45.113Z,35.3
2022-11-02T15:04:43.931Z,27.4
2022-11-02T15:09:43.834Z,22.5
2022-11-02T15:14:43.952Z,19.4
2022-11-02T15:19:44.036Z,17.6
2022-11-02T15:24:44.286Z,16.9
2022-11-02T15:29:43.962Z,16.7
2022-11-02T15:34:43.953Z,16
2022-11-02T15:39:46.995Z,14.4
2022-11-02T15:44:43.850Z,11.8
2022-11-02T15:49:59.754Z,9.4
2022-11-02T15:54:46.227Z,7.3
2022-11-02T15:59:43.928Z,5.2
2022-11-02T16:04:44.537Z,3.4
2022-11-02T16:09:43.864Z,2.1
2022-11-02T16:14:43.802Z,1.2
2022-11-02T16:19:43.886Z,0.4
2022-11-02T16:24:43.825Z,0.1
2022-11-02T16:29:43.647Z,0
2022-11-02T16:34:43.755Z,0
2022-11-02T16:39:43.970Z,0
2022-11-02T16:49:43.998Z,0
2022-11-02T16:54:43.774Z,0
2022-11-02T16:59:43.847Z,0
2022-11-02T17:04:45.555Z,0
2022-11-02T17:09:43.914Z,0
2022-11-02T17:14:43.888Z,0
2022-11-02T17:19:43.771Z,0
2022-11-02T17:24:43.988Z,0
2022-11-02T17:29:43.808Z,0
2022-11-02T17:34:43.574Z,0
2022-11-02T17:39:43.722Z,0
2022-11-02T17:44:43.600Z,0
2022-11-02T17:49:43.738Z,0
2022-11-02T17:54:43.919Z,0
2022-11-02T17:59:43.583Z,0
2022-11-02T18:09:43.655Z,0
2022-11-02T18:14:43.677Z,0
2022-11-02T18:19:43.626Z,0
2022-11-02T18:24:43.823Z,0
2022-11-02T18:29:43.580Z,0
2022-11-02T18:34:43.737Z,0
2022-11-02T18:39:43.584Z,0
2022-11-02T18:44:43.548Z,0
2022-11-02T18:49:43.913Z,0
2022-11-02T18:54:43.723Z,0
2022-11-02T18:59:43.602Z,0
2022-11-02T19:04:43.784Z,0
2022-11-02T19:09:43.757Z,0
2022-11-02T19:14:43.683Z,0
2022-11-02T19:19:43.701Z,0
2022-11-02T19:24:43.700Z,0
2022-11-02T19:29:43.551Z,0
2022-11-02T19:34:43.589Z,0
2022-11-02T19:39:43.768Z,0
2022-11-02T19:44:43.570Z,0
2022-11-02T19:49:43.747Z,0
2022-11-02T19:54:43.707Z,0
2022-11-02T19:59:43.588Z,0
2022-11-02T20:04:43.470Z,0
2022-11-02T20:09:43.395Z,0
2022-11-02T20:14:43.403Z,0
2022-11-02T20:19:43.458Z,0
2022-11-02T20:24:43.541Z,0
2022-11-02T20:29:43.381Z,0
2022-11-02T20:34:43.560Z,0
2022-11-02T20:39:43.463Z,0
2022-11-02T20:44:43.684Z,0
2022-11-02T20:49:50.583Z,0
2022-11-02T20:54:43.445Z,0
2022-11-02T20:59:43.438Z,0
2022-11-02T21:04:43.697Z,0
2022-11-02T21:09:43.557Z,0
2022-11-02T21:14:43.438Z,0
2022-11-02T21:19:43.523Z,0
2022-11-02T21:24:43.566Z,0
2022-11-02T21:29:43.450Z,0
2022-11-02T21:34:43.380Z,0
2022-11-02T21:39:43.435Z,0
2022-11-02T21:44:43.263Z,0
2022-11-02T21:49:43.495Z,0
2022-11-02T21:54:43.523Z,0
2022-11-02T21:59:43.372Z,0
2022-11-02T22:04:43.597Z,0
2022-11-02T22:09:43.552Z,0
2022-11-02T22:14:43.367Z,0
2022-11-02T22:19:43.412Z,0
2022-11-02T22:24:44.952Z,0
2022-11-02T22:29:43.543Z,0
2022-11-02T22:34:43.643Z,0
2022-11-02T22:39:43.563Z,0
2022-11-02T22:44:43.334Z,0
2022-11-02T22:49:43.671Z,0
2022-11-02T22:54:43.346Z,0
2022-11-02T22:59:43.424Z,0
2022-11-02T23:04:43.501Z,0
2022-11-02T23:09:43.253Z,0
2022-11-02T23:14:43.448Z,0
2022-11-02T23:19:43.540Z,0
2022-11-02T23:24:44.266Z,0
2022-11-02T23:29:43.201Z,0
2022-11-02T23:34:43.579Z,0
2022-11-02T23:39:43.466Z,0
2022-11-02T23:44:43.339Z,0
2022-11-02T23:49:43.440Z,0
2022-11-02T23:54:43.187Z,0
2022-11-02T23:59:43.475Z,0
